createdAt,value
2023-04-03T00:01:22.197Z,3.36
2023-04-03T00:03:49.238Z,3.34
2023-04-03T00:06:16.335Z,3.28
2023-04-03T00:08:43.550Z,3.27
2023-04-03T00:11:11.436Z,3.23
2023-04-03T00:13:39.964Z,3.21
2023-04-03T00:16:09.178Z,3.20
2023-04-03T00:18:38.359Z,3.14
2023-04-03T00:21:06.348Z,3.13
2023-04-03T00:23:34.596Z,3.06
2023-04-03T00:26:01.676Z,3.06
2023-04-03T00:28:28.808Z,3.00
2023-04-03T00:30:55.918Z,2.97
2023-04-03T00:33:23.115Z,2.93
2023-04-03T00:35:50.887Z,2.91
2023-04-03T00:38:18.728Z,2.85
2023-04-03T00:40:48.928Z,2.82
2023-04-03T00:43:23.999Z,2.78
2023-04-03T00:45:54.386Z,2.72
2023-04-03T00:48:28.100Z,2.68
2023-04-03T00:50:55.148Z,2.65
2023-04-03T00:54:02.783Z,2.57
2023-04-03T00:56:31.905Z,2.52
2023-04-03T00:59:10.221Z,2.48
2023-04-03T01:01:39.031Z,2.46
2023-04-03T01:04:07.599Z,2.44
2023-04-03T01:06:38.541Z,2.39
2023-04-03T01:09:06.682Z,2.34
2023-04-03T01:11:34.163Z,2.33
2023-04-03T01:14:01.288Z,2.30
2023-04-03T01:16:29.529Z,2.28
2023-04-03T01:18:56.752Z,2.24
2023-04-03T01:21:48.215Z,2.14
2023-04-03T01:24:37.969Z,2.09
2023-04-03T01:27:08.374Z,2.08
2023-04-03T01:29:35.624Z,2.04
2023-04-03T01:32:04.365Z,2.01
2023-04-03T01:34:32.283Z,1.99
2023-04-03T01:36:59.685Z,1.93
2023-04-03T01:39:26.778Z,1.88
2023-04-03T01:41:53.944Z,1.85
2023-04-03T01:44:21.844Z,1.84
2023-04-03T01:46:48.823Z,1.79
2023-04-03T01:49:15.782Z,1.75
2023-04-03T01:51:42.670Z,1.71
2023-04-03T01:54:09.652Z,1.68
2023-04-03T01:56:36.721Z,1.65
2023-04-03T01:59:03.668Z,1.63
2023-04-03T02:01:30.630Z,1.59
2023-04-03T02:03:57.931Z,1.59
2023-04-03T02:06:24.952Z,1.51
2023-04-03T02:08:52.068Z,1.49
2023-04-03T02:11:18.959Z,1.43
2023-04-03T02:13:45.973Z,1.40
2023-04-03T02:16:14.299Z,1.37
2023-04-03T02:18:41.289Z,1.33
2023-04-03T02:21:08.370Z,1.28
2023-04-03T02:23:37.297Z,1.26
2023-04-03T02:26:12.356Z,1.23
2023-04-03T02:28:39.983Z,1.18
2023-04-03T02:31:11.771Z,1.15
2023-04-03T02:33:39.465Z,1.13
2023-04-03T02:36:08.415Z,1.09
2023-04-03T02:38:36.515Z,1.07
2023-04-03T02:41:05.844Z,1.05
2023-04-03T02:43:33.263Z,1.01
2023-04-03T02:46:00.756Z,0.95
2023-04-03T02:48:28.182Z,0.95
2023-04-03T02:50:55.214Z,0.95
2023-04-03T02:53:22.520Z,0.92
2023-04-03T02:55:49.820Z,0.89
2023-04-03T02:58:17.156Z,0.85
2023-04-03T03:00:44.490Z,0.84
2023-04-03T03:03:11.574Z,0.81
2023-04-03T03:05:38.476Z,0.76
2023-04-03T03:08:05.726Z,0.72
2023-04-03T03:10:32.622Z,0.69
2023-04-03T03:12:59.491Z,0.64
2023-04-03T03:15:26.418Z,0.60
2023-04-03T03:17:53.314Z,0.55
2023-04-03T03:20:20.490Z,0.48
2023-04-03T03:22:47.462Z,0.45
2023-04-03T03:25:14.505Z,0.42
2023-04-03T03:27:41.845Z,0.40
2023-04-03T03:30:09.351Z,0.34
2023-04-03T03:32:36.499Z,0.34
2023-04-03T03:35:04.130Z,0.31
2023-04-03T03:37:30.983Z,0.30
2023-04-03T03:39:58.219Z,0.28
2023-04-03T03:42:25.137Z,0.27
2023-04-03T03:44:53.026Z,0.26
2023-04-03T03:47:20.047Z,0.26
2023-04-03T03:49:47.010Z,0.25
2023-04-03T03:52:14.256Z,0.20
2023-04-03T03:54:41.178Z,0.21
2023-04-03T03:57:08.129Z,0.16
2023-04-03T03:59:35.101Z,0.16
2023-04-03T04:02:02.308Z,0.15
2023-04-03T04:04:29.287Z,0.13
2023-04-03T04:06:56.373Z,0.12
2023-04-03T04:09:23.272Z,0.10
2023-04-03T04:11:50.397Z,0.09
2023-04-03T04:14:17.429Z,0.07
2023-04-03T04:16:44.578Z,0.06
2023-04-03T04:19:11.602Z,0.01
2023-04-03T04:21:38.711Z,0.01
2023-04-03T04:24:06.545Z,-0.01
2023-04-03T04:26:33.424Z,-0.01
2023-04-03T04:29:00.445Z,-0.04
2023-04-03T04:31:28.190Z,-0.10
2023-04-03T04:33:55.256Z,-0.09
2023-04-03T04:36:22.524Z,-0.10
2023-04-03T04:38:49.585Z,-0.11
2023-04-03T04:41:17.249Z,-0.15
2023-04-03T04:43:44.433Z,-0.15
2023-04-03T04:46:15.172Z,-0.17
2023-04-03T04:48:42.159Z,-0.15
2023-04-03T04:51:09.522Z,-0.16
2023-04-03T04:53:36.648Z,-0.21
2023-04-03T04:56:03.812Z,-0.24
2023-04-03T04:58:30.751Z,-0.26
2023-04-03T05:01:10.213Z,-0.28
2023-04-03T05:03:37.708Z,-0.30
2023-04-03T05:06:05.983Z,-0.32
2023-04-03T05:08:33.302Z,-0.34
2023-04-03T05:11:00.435Z,-0.37
2023-04-03T05:13:27.479Z,-0.40
2023-04-03T05:15:54.405Z,-0.44
2023-04-03T05:18:21.334Z,-0.49
2023-04-03T05:20:51.543Z,-0.51
2023-04-03T05:23:19.452Z,-0.52
2023-04-03T05:25:48.140Z,-0.56
2023-04-03T05:28:15.056Z,-0.59
2023-04-03T05:30:42.111Z,-0.57
2023-04-03T05:33:09.168Z,-0.57
2023-04-03T05:35:41.963Z,-0.57
2023-04-03T05:38:09.308Z,-0.58
2023-04-03T05:40:36.437Z,-0.58
2023-04-03T05:43:03.452Z,-0.57
2023-04-03T05:45:31.541Z,-0.55
2023-04-03T05:47:58.689Z,-0.50
2023-04-03T05:50:25.922Z,-0.43
2023-04-03T05:52:56.839Z,-0.34
2023-04-03T05:55:23.703Z,-0.27
2023-04-03T05:57:51.400Z,-0.17
2023-04-03T06:00:18.952Z,-0.03
2023-04-03T06:02:46.103Z,0.03
2023-04-03T06:05:14.301Z,0.14
2023-04-03T06:07:42.307Z,0.21
2023-04-03T06:10:10.183Z,0.33
2023-04-03T06:12:37.275Z,0.42
2023-04-03T06:15:04.909Z,0.50
2023-04-03T06:17:32.407Z,0.51
2023-04-03T06:19:59.630Z,0.68
2023-04-03T06:22:27.022Z,0.76
2023-04-03T06:24:54.427Z,0.83
2023-04-03T06:27:21.338Z,0.96
2023-04-03T06:29:48.784Z,1.02
2023-04-03T06:32:17.167Z,1.14
2023-04-03T06:34:44.079Z,1.22
2023-04-03T06:37:19.371Z,1.26
2023-04-03T06:39:46.524Z,1.42
2023-04-03T06:42:14.438Z,1.51
2023-04-03T06:44:41.506Z,1.64
2023-04-03T06:47:12.370Z,1.75
2023-04-03T06:49:39.586Z,1.85
2023-04-03T06:52:06.967Z,1.99
2023-04-03T06:54:34.340Z,2.18
2023-04-03T06:57:01.524Z,2.29
2023-04-03T06:59:28.973Z,2.40
2023-04-03T07:01:55.919Z,2.53
2023-04-03T07:04:23.229Z,2.62
2023-04-03T07:06:50.219Z,2.77
2023-04-03T07:09:17.307Z,2.91
2023-04-03T07:11:44.422Z,3.04
2023-04-03T07:14:11.454Z,3.19
2023-04-03T07:16:40.933Z,3.26
2023-04-03T07:19:10.110Z,3.41
2023-04-03T07:21:37.181Z,3.53
2023-04-03T07:24:04.329Z,3.65
2023-04-03T07:26:31.828Z,3.77
2023-04-03T07:28:58.938Z,3.89
2023-04-03T07:31:26.879Z,4.09
2023-04-03T07:33:53.908Z,4.30
2023-04-03T07:36:24.316Z,4.54
2023-04-03T07:38:51.336Z,4.77
2023-04-03T07:41:23.740Z,4.96
2023-04-03T07:43:51.162Z,5.17
2023-04-03T07:46:18.906Z,5.33
2023-04-03T07:48:46.623Z,5.54
2023-04-03T07:51:14.272Z,5.78
2023-04-03T07:53:41.348Z,6.01
2023-04-03T07:56:09.589Z,6.25
2023-04-03T07:58:37.341Z,6.49
2023-04-03T08:01:04.971Z,6.71
2023-04-03T08:03:31.991Z,6.88
2023-04-03T08:06:07.338Z,6.96
2023-04-03T08:08:34.859Z,7.16
2023-04-03T08:11:03.762Z,7.53
2023-04-03T08:13:32.080Z,7.57
2023-04-03T08:16:00.296Z,7.72
2023-04-03T08:18:27.926Z,7.83
2023-04-03T08:20:55.312Z,7.92
2023-04-03T08:23:22.292Z,8.02
2023-04-03T08:25:49.367Z,8.14
2023-04-03T08:28:16.447Z,8.15
2023-04-03T08:30:43.963Z,8.28
2023-04-03T08:33:11.741Z,8.47
2023-04-03T08:35:43.209Z,8.53
2023-04-03T08:38:11.673Z,8.70
2023-04-03T08:40:46.713Z,8.80
2023-04-03T08:43:32.358Z,8.81
2023-04-03T08:46:04.085Z,8.64
2023-04-03T08:48:37.987Z,8.69
2023-04-03T08:51:16.562Z,8.67
2023-04-03T08:54:00.117Z,8.55
2023-04-03T08:56:28.180Z,8.53
2023-04-03T08:59:23.687Z,8.49
2023-04-03T09:01:52.749Z,8.40
2023-04-03T09:04:20.346Z,8.40
2023-04-03T09:07:07.338Z,8.35
2023-04-03T09:09:42.675Z,8.37
2023-04-03T09:12:39.631Z,8.32
2023-04-03T09:15:31.369Z,8.16
2023-04-03T09:18:19.924Z,8.09
2023-04-03T09:21:03.801Z,7.98
2023-04-03T09:23:47.132Z,7.93
2023-04-03T09:26:27.493Z,7.95
2023-04-03T09:29:00.362Z,8.02
2023-04-03T09:31:44.541Z,8.09
2023-04-03T09:34:24.336Z,8.12
2023-04-03T09:36:59.764Z,8.04
2023-04-03T09:39:30.219Z,7.93
2023-04-03T09:42:22.680Z,7.78
2023-04-03T09:45:26.070Z,7.60
2023-04-03T09:48:15.309Z,7.49
2023-04-03T09:50:52.115Z,7.61
2023-04-03T09:53:31.666Z,7.73
2023-04-03T09:55:59.562Z,7.80
2023-04-03T09:58:46.875Z,7.78
2023-04-03T10:01:30.989Z,7.84
2023-04-03T10:04:19.748Z,7.89
2023-04-03T10:06:52.036Z,7.98
2023-04-03T10:09:26.694Z,8.12
2023-04-03T10:12:07.133Z,8.24
2023-04-03T10:14:58.399Z,8.27
2023-04-03T10:17:38.533Z,8.47
2023-04-03T10:20:38.808Z,8.51
2023-04-03T10:23:47.196Z,8.55
2023-04-03T10:26:34.304Z,8.60
2023-04-03T10:29:13.454Z,8.71
2023-04-03T10:31:59.849Z,8.81
2023-04-03T10:34:41.355Z,8.95
2023-04-03T10:37:31.383Z,9.13
2023-04-03T10:40:25.807Z,9.23
2023-04-03T10:43:40.978Z,9.33
2023-04-03T10:46:20.368Z,9.46
2023-04-03T10:49:16.537Z,9.49
2023-04-03T10:51:53.009Z,9.42
2023-04-03T10:54:28.157Z,9.37
2023-04-03T10:57:11.881Z,9.24
2023-04-03T11:00:05.605Z,9.30
2023-04-03T11:03:10.991Z,9.39
2023-04-03T11:05:52.344Z,9.53
2023-04-03T11:08:39.413Z,9.67
2023-04-03T11:11:22.567Z,9.76
2023-04-03T11:14:04.729Z,9.76
2023-04-03T11:16:51.074Z,9.80
2023-04-03T11:19:44.975Z,9.86
2023-04-03T11:22:25.895Z,9.85
2023-04-03T11:25:04.266Z,9.82
2023-04-03T11:27:45.020Z,9.79
2023-04-03T11:30:20.988Z,9.78
2023-04-03T11:33:18.761Z,9.84
2023-04-03T11:35:49.762Z,9.95
2023-04-03T11:38:27.358Z,9.94
2023-04-03T11:40:56.737Z,10.02
2023-04-03T11:43:32.682Z,10.10
2023-04-03T11:46:07.606Z,10.18
2023-04-03T11:48:37.889Z,10.22
2023-04-03T11:51:13.674Z,10.29
2023-04-03T11:53:42.342Z,10.43
2023-04-03T11:56:21.868Z,10.53
2023-04-03T11:59:11.666Z,10.68
2023-04-03T12:01:55.549Z,10.79
2023-04-03T12:04:26.643Z,10.78
2023-04-03T12:07:13.860Z,10.66
2023-04-03T12:09:43.872Z,10.69
2023-04-03T12:12:32.470Z,10.75
2023-04-03T12:15:46.454Z,10.76
2023-04-03T12:19:01.704Z,10.79
2023-04-03T12:21:31.455Z,10.85
2023-04-03T12:24:10.983Z,10.93
2023-04-03T12:26:49.212Z,10.94
2023-04-03T12:29:34.633Z,11.02
2023-04-03T12:32:04.965Z,11.10
2023-04-03T12:35:02.957Z,11.14
2023-04-03T12:38:31.149Z,11.17
2023-04-03T12:41:19.724Z,11.20
2023-04-03T12:44:46.650Z,11.20
2023-04-03T12:47:43.909Z,11.28
2023-04-03T12:50:25.767Z,11.28
2023-04-03T12:53:01.132Z,11.27
2023-04-03T12:55:28.145Z,11.20
2023-04-03T12:57:55.081Z,11.21
2023-04-03T13:00:28.602Z,11.21
2023-04-03T13:02:55.963Z,11.31
2023-04-03T13:05:24.017Z,11.34
2023-04-03T13:08:00.188Z,11.35
2023-04-03T13:10:27.415Z,11.42
2023-04-03T13:12:59.037Z,11.43
2023-04-03T13:15:32.053Z,11.50
2023-04-03T13:17:59.383Z,11.54
2023-04-03T13:20:33.268Z,11.63
2023-04-03T13:23:07.818Z,11.64
2023-04-03T13:25:38.526Z,11.67
2023-04-03T13:28:13.986Z,11.68
2023-04-03T13:30:51.506Z,11.69
2023-04-03T13:33:27.218Z,11.60
2023-04-03T13:36:05.954Z,11.62
2023-04-03T13:38:34.927Z,11.57
2023-04-03T13:41:38.863Z,11.63
2023-04-03T13:44:24.511Z,11.65
2023-04-03T13:47:02.873Z,11.76
2023-04-03T13:49:43.748Z,11.71
2023-04-03T13:52:30.519Z,11.72
2023-04-03T13:55:05.853Z,11.76
2023-04-03T13:57:35.056Z,11.72
2023-04-03T14:00:22.898Z,11.78
2023-04-03T14:02:49.954Z,11.84
2023-04-03T14:05:19.387Z,11.86
2023-04-03T14:07:46.529Z,11.94
2023-04-03T14:10:13.474Z,11.97
2023-04-03T14:12:41.906Z,12.01
2023-04-03T14:15:25.491Z,12.07
2023-04-03T14:17:53.215Z,12.10
2023-04-03T14:20:24.966Z,12.09
2023-04-03T14:22:53.219Z,12.12
2023-04-03T14:25:21.738Z,12.15
2023-04-03T14:27:52.025Z,12.08
2023-04-03T14:30:27.986Z,12.11
2023-04-03T14:32:55.851Z,12.17
2023-04-03T14:35:24.176Z,12.20
2023-04-03T14:37:54.450Z,12.21
2023-04-03T14:40:28.409Z,12.23
2023-04-03T14:42:56.690Z,12.23
2023-04-03T14:45:24.925Z,12.22
2023-04-03T14:47:55.922Z,12.30
2023-04-03T14:50:26.859Z,12.29
2023-04-03T14:52:58.920Z,12.26
2023-04-03T14:55:27.535Z,12.23
2023-04-03T14:57:55.631Z,12.24
2023-04-03T15:00:24.404Z,12.25
2023-04-03T15:02:52.120Z,12.31
2023-04-03T15:05:20.833Z,12.30
2023-04-03T15:07:57.621Z,12.25
2023-04-03T15:10:30.588Z,12.20
2023-04-03T15:12:58.808Z,12.21
2023-04-03T15:15:27.626Z,12.21
2023-04-03T15:17:57.528Z,12.25
2023-04-03T15:20:27.676Z,12.28
2023-04-03T15:22:57.374Z,12.30
2023-04-03T15:25:26.567Z,12.32
2023-04-03T15:27:57.308Z,12.32
2023-04-03T15:30:24.649Z,12.33
2023-04-03T15:32:52.256Z,12.29
2023-04-03T15:35:19.533Z,12.24
2023-04-03T15:37:46.620Z,12.19
2023-04-03T15:40:14.593Z,12.16
2023-04-03T15:42:41.667Z,12.11
2023-04-03T15:45:09.584Z,12.09
2023-04-03T15:47:36.960Z,12.08
2023-04-03T15:50:07.357Z,12.09
2023-04-03T15:52:34.680Z,12.13
2023-04-03T15:55:02.024Z,12.15
2023-04-03T15:59:56.458Z,12.20
2023-04-03T16:02:23.965Z,12.21
2023-04-03T16:04:51.264Z,12.18
2023-04-03T16:07:18.328Z,12.17
2023-04-03T16:09:45.337Z,12.13
2023-04-03T16:12:12.279Z,12.13
2023-04-03T16:14:39.184Z,12.11
2023-04-03T16:17:06.209Z,12.04
2023-04-03T16:19:33.255Z,12.02
2023-04-03T16:22:00.340Z,12.00
2023-04-03T16:24:27.516Z,11.97
2023-04-03T16:26:54.646Z,11.94
2023-04-03T16:29:21.582Z,11.94
2023-04-03T16:31:48.876Z,11.95
2023-04-03T16:34:17.142Z,11.89
2023-04-03T16:36:44.154Z,11.83
2023-04-03T16:39:11.401Z,11.78
2023-04-03T16:41:39.098Z,11.76
2023-04-03T16:44:08.415Z,11.74
2023-04-03T16:46:35.649Z,11.70
2023-04-03T16:49:02.807Z,11.65
2023-04-03T16:51:29.947Z,11.63
2023-04-03T16:53:57.272Z,11.62
2023-04-03T16:56:25.085Z,11.60
2023-04-03T16:58:52.103Z,11.56
2023-04-03T17:01:21.411Z,11.55
2023-04-03T17:03:49.164Z,11.52
2023-04-03T17:06:22.272Z,11.48
2023-04-03T17:08:51.199Z,11.51
2023-04-03T17:11:19.389Z,11.48
2023-04-03T17:13:46.276Z,11.44
2023-04-03T17:16:15.995Z,11.40
2023-04-03T17:18:43.990Z,11.36
2023-04-03T17:21:11.019Z,11.30
2023-04-03T17:23:39.598Z,11.31
2023-04-03T17:26:06.603Z,11.27
2023-04-03T17:28:33.557Z,11.27
2023-04-03T17:31:03.432Z,11.17
2023-04-03T17:33:31.438Z,11.14
2023-04-03T17:36:04.571Z,11.12
2023-04-03T17:38:34.194Z,11.08
2023-04-03T17:41:04.862Z,11.02
2023-04-03T17:43:32.089Z,10.93
2023-04-03T17:46:07.212Z,10.90
2023-04-03T17:48:35.160Z,10.84
2023-04-03T17:51:15.748Z,10.79
2023-04-03T17:53:44.878Z,10.77
2023-04-03T17:56:17.036Z,10.67
2023-04-03T17:58:45.006Z,10.65
2023-04-03T18:01:23.561Z,10.58
2023-04-03T18:03:55.225Z,10.51
2023-04-03T18:06:27.582Z,10.40
2023-04-03T18:09:08.474Z,10.38
2023-04-03T18:11:35.687Z,10.31
2023-04-03T18:14:05.108Z,10.22
2023-04-03T18:16:32.365Z,10.20
2023-04-03T18:19:17.713Z,10.18
2023-04-03T18:21:48.074Z,10.10
2023-04-03T18:24:19.048Z,10.05
2023-04-03T18:26:51.722Z,9.98
2023-04-03T18:29:19.093Z,9.95
2023-04-03T18:31:51.378Z,9.89
2023-04-03T18:34:18.873Z,9.82
2023-04-03T18:36:46.847Z,9.76
2023-04-03T18:39:14.352Z,9.67
2023-04-03T18:41:42.149Z,9.64
2023-04-03T18:44:14.099Z,9.59
2023-04-03T18:46:41.263Z,9.53
2023-04-03T18:49:09.808Z,9.46
2023-04-03T18:51:39.503Z,9.40
2023-04-03T18:54:10.097Z,9.32
2023-04-03T18:56:38.105Z,9.26
2023-04-03T18:59:05.722Z,9.16
2023-04-03T19:01:34.318Z,9.09
2023-04-03T19:04:01.425Z,9.00
2023-04-03T19:06:28.604Z,8.91
2023-04-03T19:08:55.810Z,8.84
2023-04-03T19:11:23.435Z,8.75
2023-04-03T19:16:20.315Z,8.60
2023-04-03T19:18:47.257Z,8.52
2023-04-03T19:21:15.991Z,8.46
2023-04-03T19:23:45.159Z,8.35
2023-04-03T19:26:13.839Z,8.29
2023-04-03T19:28:42.942Z,8.21
2023-04-03T19:31:21.498Z,8.12
2023-04-03T19:33:49.023Z,8.05
2023-04-03T19:36:17.627Z,7.99
2023-04-03T19:38:45.189Z,7.90
2023-04-03T19:41:19.997Z,7.84
2023-04-03T19:43:47.340Z,7.78
2023-04-03T19:46:14.537Z,7.72
2023-04-03T19:48:41.616Z,7.67
2023-04-03T19:51:09.058Z,7.60
2023-04-03T19:53:36.202Z,7.54
2023-04-03T19:56:03.742Z,7.50
2023-04-03T19:58:31.008Z,7.45
2023-04-03T20:00:59.203Z,7.42
2023-04-03T20:03:27.456Z,7.38
2023-04-03T20:05:55.627Z,7.35
2023-04-03T20:08:23.344Z,7.32
2023-04-03T20:10:50.344Z,7.31
2023-04-03T20:13:17.440Z,7.30
2023-04-03T20:15:45.088Z,7.28
2023-04-03T20:18:20.044Z,7.25
2023-04-03T20:21:02.381Z,7.21
2023-04-03T20:23:30.884Z,7.18
2023-04-03T20:26:09.576Z,7.16
2023-04-03T20:28:40.220Z,7.10
2023-04-03T20:31:09.421Z,7.05
2023-04-03T20:33:37.483Z,7.02
2023-04-03T20:36:04.807Z,6.97
2023-04-03T20:38:31.707Z,6.92
2023-04-03T20:41:00.433Z,6.87
2023-04-03T20:43:28.623Z,6.82
2023-04-03T20:45:56.225Z,6.78
2023-04-03T20:48:23.875Z,6.76
2023-04-03T20:50:51.271Z,6.73
2023-04-03T20:53:19.380Z,6.68
2023-04-03T20:56:00.180Z,6.60
2023-04-03T20:58:35.926Z,6.58
2023-04-03T21:01:03.102Z,6.55
2023-04-03T21:03:30.862Z,6.51
2023-04-03T21:06:00.726Z,6.47
2023-04-03T21:09:24.258Z,6.39
2023-04-03T21:12:47.229Z,6.36
2023-04-03T21:16:00.084Z,6.27
2023-04-03T21:18:58.163Z,6.19
2023-04-03T21:21:26.528Z,6.15
2023-04-03T21:23:57.055Z,6.10
2023-04-03T21:26:26.613Z,6.03
2023-04-03T21:28:54.733Z,6.00
2023-04-03T21:31:22.835Z,5.94
2023-04-03T21:33:50.878Z,5.89
2023-04-03T21:36:17.880Z,5.84
2023-04-03T21:38:46.257Z,5.81
2023-04-03T21:41:13.294Z,5.75
2023-04-03T21:43:40.331Z,5.72
2023-04-03T21:46:07.373Z,5.68
2023-04-03T21:48:36.737Z,5.59
2023-04-03T21:51:07.183Z,5.55
2023-04-03T21:53:35.327Z,5.51
2023-04-03T21:56:02.868Z,5.47
2023-04-03T21:58:34.001Z,5.47
2023-04-03T22:01:12.577Z,5.43
2023-04-03T22:03:44.092Z,5.40
2023-04-03T22:06:13.618Z,5.38
2023-04-03T22:08:41.617Z,5.37
2023-04-03T22:11:17.683Z,5.35
2023-04-03T22:13:45.765Z,5.35
2023-04-03T22:16:13.149Z,5.38
2023-04-03T22:18:40.417Z,5.35
2023-04-03T22:21:10.596Z,5.42
2023-04-03T22:23:38.127Z,5.43
2023-04-03T22:26:09.879Z,5.43
2023-04-03T22:28:43.161Z,5.46
2023-04-03T22:31:14.528Z,5.50
2023-04-03T22:33:43.343Z,5.44
2023-04-03T22:36:12.876Z,5.43
2023-04-03T22:38:44.527Z,5.39
2023-04-03T22:41:14.578Z,5.41
2023-04-03T22:43:41.915Z,5.41
2023-04-03T22:46:10.112Z,5.39
2023-04-03T22:48:48.732Z,5.37
2023-04-03T22:51:15.949Z,5.36
2023-04-03T22:53:43.218Z,5.33
2023-04-03T22:56:11.414Z,5.31
2023-04-03T22:58:39.295Z,5.28
2023-04-03T23:01:11.303Z,5.26
2023-04-03T23:03:40.574Z,5.25
2023-04-03T23:06:09.635Z,5.24
2023-04-03T23:08:41.144Z,5.17
2023-04-03T23:11:09.906Z,5.17
2023-04-03T23:13:37.526Z,5.15
2023-04-03T23:16:05.575Z,5.10
2023-04-03T23:18:33.207Z,5.08
2023-04-03T23:21:01.692Z,5.04
2023-04-03T23:23:28.932Z,5.06
2023-04-03T23:25:59.061Z,5.03
2023-04-03T23:28:27.487Z,5.01
2023-04-03T23:31:03.130Z,4.97
2023-04-03T23:33:32.113Z,4.96
2023-04-03T23:36:01.455Z,4.93
2023-04-03T23:38:28.597Z,4.89
2023-04-03T23:40:56.031Z,4.87
2023-04-03T23:43:22.926Z,4.84
2023-04-03T23:45:50.044Z,4.78
2023-04-03T23:48:17.634Z,4.75
2023-04-03T23:50:44.641Z,4.70
2023-04-03T23:53:13.755Z,4.71
2023-04-03T23:55:42.154Z,4.67
2023-04-03T23:58:09.314Z,4.58
